sensor_id;sensor_type;location;lat;lon;timestamp;P1;durP1;ratioP1;P2;durP2;ratioP2
32874;SDS011;40468;42.128;24.750;2022-10-19T00:00:07;15.95;;;6.28;;
32874;SDS011;40468;42.128;24.750;2022-10-19T00:01:39;11.77;;;6.00;;
32874;SDS011;40468;42.128;24.750;2022-10-19T00:03:11;10.30;;;5.82;;
32874;SDS011;40468;42.128;24.750;2022-10-19T00:04:42;12.75;;;5.88;;
32874;SDS011;40468;42.128;24.750;2022-10-19T00:06:15;15.13;;;6.03;;
32874;SDS011;40468;42.128;24.750;2022-10-19T00:07:55;8.43;;;5.55;;
32874;SDS011;40468;42.128;24.750;2022-10-19T00:09:30;13.35;;;5.63;;
32874;SDS011;40468;42.128;24.750;2022-10-19T00:11:02;10.40;;;5.85;;
32874;SDS011;40468;42.128;24.750;2022-10-19T00:12:34;13.93;;;6.03;;
32874;SDS011;40468;42.128;24.750;2022-10-19T00:14:06;15.20;;;6.32;;
32874;SDS011;40468;42.128;24.750;2022-10-19T00:15:39;15.18;;;5.80;;
32874;SDS011;40468;42.128;24.750;2022-10-19T00:17:10;14.13;;;5.53;;
32874;SDS011;40468;42.128;24.750;2022-10-19T00:18:42;11.52;;;5.53;;
32874;SDS011;40468;42.128;24.750;2022-10-19T00:20:15;11.68;;;5.80;;
32874;SDS011;40468;42.128;24.750;2022-10-19T00:21:47;16.55;;;6.22;;
32874;SDS011;40468;42.128;24.750;2022-10-19T00:23:21;9.80;;;5.50;;
32874;SDS011;40468;42.128;24.750;2022-10-19T00:24:54;12.18;;;5.70;;
32874;SDS011;40468;42.128;24.750;2022-10-19T00:26:26;15.02;;;5.93;;
32874;SDS011;40468;42.128;24.750;2022-10-19T00:27:59;12.75;;;5.68;;
32874;SDS011;40468;42.128;24.750;2022-10-19T00:29:31;9.57;;;5.10;;
32874;SDS011;40468;42.128;24.750;2022-10-19T00:31:03;13.70;;;5.82;;
32874;SDS011;40468;42.128;24.750;2022-10-19T00:32:35;10.77;;;5.38;;
32874;SDS011;40468;42.128;24.750;2022-10-19T00:34:07;10.52;;;5.38;;
32874;SDS011;40468;42.128;24.750;2022-10-19T00:35:38;9.25;;;5.05;;
32874;SDS011;40468;42.128;24.750;2022-10-19T00:37:10;8.43;;;4.75;;
32874;SDS011;40468;42.128;24.750;2022-10-19T00:38:43;11.07;;;4.75;;
32874;SDS011;40468;42.128;24.750;2022-10-19T00:40:15;11.10;;;5.05;;
32874;SDS011;40468;42.128;24.750;2022-10-19T00:41:47;7.50;;;4.53;;
32874;SDS011;40468;42.128;24.750;2022-10-19T00:43:21;12.52;;;5.28;;
32874;SDS011;40468;42.128;24.750;2022-10-19T00:44:57;11.07;;;4.75;;
32874;SDS011;40468;42.128;24.750;2022-10-19T00:46:32;10.32;;;4.72;;
32874;SDS011;40468;42.128;24.750;2022-10-19T00:48:06;9.00;;;4.68;;
32874;SDS011;40468;42.128;24.750;2022-10-19T00:49:41;8.75;;;4.80;;
32874;SDS011;40468;42.128;24.750;2022-10-19T00:51:15;27.77;;;7.25;;
32874;SDS011;40468;42.128;24.750;2022-10-19T00:52:47;12.23;;;4.68;;
32874;SDS011;40468;42.128;24.750;2022-10-19T00:54:21;10.35;;;4.70;;
32874;SDS011;40468;42.128;24.750;2022-10-19T00:55:52;10.77;;;5.28;;
32874;SDS011;40468;42.128;24.750;2022-10-19T00:57:25;8.50;;;5.10;;
32874;SDS011;40468;42.128;24.750;2022-10-19T00:59:00;10.75;;;4.55;;
32874;SDS011;40468;42.128;24.750;2022-10-19T01:00:34;8.82;;;4.50;;
32874;SDS011;40468;42.128;24.750;2022-10-19T01:02:06;10.73;;;4.97;;
32874;SDS011;40468;42.128;24.750;2022-10-19T01:03:37;15.40;;;5.32;;
32874;SDS011;40468;42.128;24.750;2022-10-19T01:05:09;10.38;;;4.28;;
32874;SDS011;40468;42.128;24.750;2022-10-19T01:06:42;11.82;;;5.20;;
32874;SDS011;40468;42.128;24.750;2022-10-19T01:08:14;12.13;;;6.20;;
32874;SDS011;40468;42.128;24.750;2022-10-19T01:09:48;8.60;;;4.80;;
32874;SDS011;40468;42.128;24.750;2022-10-19T01:11:22;9.60;;;5.10;;
32874;SDS011;40468;42.128;24.750;2022-10-19T01:13:08;11.35;;;5.65;;
32874;SDS011;40468;42.128;24.750;2022-10-19T01:14:50;11.48;;;4.90;;
32874;SDS011;40468;42.128;24.750;2022-10-19T01:16:33;9.18;;;4.65;;
32874;SDS011;40468;42.128;24.750;2022-10-19T01:18:17;11.23;;;5.05;;
32874;SDS011;40468;42.128;24.750;2022-10-19T01:21:58;11.05;;;4.82;;
32874;SDS011;40468;42.128;24.750;2022-10-19T01:23:52;13.35;;;5.40;;
32874;SDS011;40468;42.128;24.750;2022-10-19T01:25:37;10.48;;;5.07;;
32874;SDS011;40468;42.128;24.750;2022-10-19T01:27:30;11.80;;;5.25;;
32874;SDS011;40468;42.128;24.750;2022-10-19T01:29:13;11.15;;;4.72;;
32874;SDS011;40468;42.128;24.750;2022-10-19T01:30:52;13.52;;;5.28;;
32874;SDS011;40468;42.128;24.750;2022-10-19T01:32:31;9.38;;;5.30;;
32874;SDS011;40468;42.128;24.750;2022-10-19T01:34:12;12.90;;;5.07;;
32874;SDS011;40468;42.128;24.750;2022-10-19T01:35:51;9.75;;;5.03;;
32874;SDS011;40468;42.128;24.750;2022-10-19T01:37:33;14.02;;;5.63;;
32874;SDS011;40468;42.128;24.750;2022-10-19T01:39:10;12.30;;;6.00;;
32874;SDS011;40468;42.128;24.750;2022-10-19T01:40:52;9.80;;;5.38;;
32874;SDS011;40468;42.128;24.750;2022-10-19T01:42:28;10.88;;;5.53;;
32874;SDS011;40468;42.128;24.750;2022-10-19T01:44:06;17.98;;;5.80;;
32874;SDS011;40468;42.128;24.750;2022-10-19T01:45:44;11.95;;;5.88;;
32874;SDS011;40468;42.128;24.750;2022-10-19T01:47:21;15.05;;;5.13;;
32874;SDS011;40468;42.128;24.750;2022-10-19T01:49:00;9.60;;;5.07;;
32874;SDS011;40468;42.128;24.750;2022-10-19T01:50:40;10.70;;;5.60;;
32874;SDS011;40468;42.128;24.750;2022-10-19T01:52:17;12.00;;;5.60;;
32874;SDS011;40468;42.128;24.750;2022-10-19T01:53:51;11.50;;;5.72;;
32874;SDS011;40468;42.128;24.750;2022-10-19T01:55:27;10.68;;;5.38;;
32874;SDS011;40468;42.128;24.750;2022-10-19T01:57:00;13.93;;;5.72;;
32874;SDS011;40468;42.128;24.750;2022-10-19T01:58:36;13.23;;;5.93;;
32874;SDS011;40468;42.128;24.750;2022-10-19T02:00:10;12.02;;;6.13;;
32874;SDS011;40468;42.128;24.750;2022-10-19T02:01:45;11.82;;;6.05;;
32874;SDS011;40468;42.128;24.750;2022-10-19T02:03:20;15.07;;;6.03;;
32874;SDS011;40468;42.128;24.750;2022-10-19T02:04:54;12.35;;;6.00;;
32874;SDS011;40468;42.128;24.750;2022-10-19T02:06:27;15.45;;;5.60;;
32874;SDS011;40468;42.128;24.750;2022-10-19T02:07:59;10.40;;;5.55;;
32874;SDS011;40468;42.128;24.750;2022-10-19T02:09:34;13.18;;;5.53;;
32874;SDS011;40468;42.128;24.750;2022-10-19T02:11:07;12.65;;;5.97;;
32874;SDS011;40468;42.128;24.750;2022-10-19T02:12:39;13.00;;;5.35;;
32874;SDS011;40468;42.128;24.750;2022-10-19T02:14:12;10.88;;;5.80;;
32874;SDS011;40468;42.128;24.750;2022-10-19T02:15:47;10.48;;;5.70;;
32874;SDS011;40468;42.128;24.750;2022-10-19T02:17:23;11.32;;;5.30;;
32874;SDS011;40468;42.128;24.750;2022-10-19T02:19:00;15.70;;;6.05;;
32874;SDS011;40468;42.128;24.750;2022-10-19T02:20:33;14.75;;;5.50;;
32874;SDS011;40468;42.128;24.750;2022-10-19T02:22:05;17.60;;;6.55;;
32874;SDS011;40468;42.128;24.750;2022-10-19T02:23:38;13.23;;;5.85;;
32874;SDS011;40468;42.128;24.750;2022-10-19T02:25:08;13.48;;;5.38;;
32874;SDS011;40468;42.128;24.750;2022-10-19T02:26:41;15.85;;;6.80;;
32874;SDS011;40468;42.128;24.750;2022-10-19T02:28:13;10.10;;;6.15;;
32874;SDS011;40468;42.128;24.750;2022-10-19T02:29:45;12.82;;;5.70;;
32874;SDS011;40468;42.128;24.750;2022-10-19T02:31:17;9.40;;;5.35;;
32874;SDS011;40468;42.128;24.750;2022-10-19T02:32:49;11.20;;;5.78;;
32874;SDS011;40468;42.128;24.750;2022-10-19T02:34:22;12.07;;;4.95;;
32874;SDS011;40468;42.128;24.750;2022-10-19T02:35:54;10.20;;;4.88;;
32874;SDS011;40468;42.128;24.750;2022-10-19T02:37:26;13.38;;;5.25;;
32874;SDS011;40468;42.128;24.750;2022-10-19T02:38:58;7.30;;;4.72;;
32874;SDS011;40468;42.128;24.750;2022-10-19T02:40:30;10.48;;;4.60;;
32874;SDS011;40468;42.128;24.750;2022-10-19T02:42:08;8.63;;;4.88;;
32874;SDS011;40468;42.128;24.750;2022-10-19T02:43:47;10.60;;;4.97;;
32874;SDS011;40468;42.128;24.750;2022-10-19T02:45:22;8.02;;;4.63;;
32874;SDS011;40468;42.128;24.750;2022-10-19T02:46:58;9.43;;;4.38;;
32874;SDS011;40468;42.128;24.750;2022-10-19T02:48:34;9.35;;;4.40;;
32874;SDS011;40468;42.128;24.750;2022-10-19T02:50:10;10.32;;;4.40;;
32874;SDS011;40468;42.128;24.750;2022-10-19T02:51:54;9.32;;;4.47;;
32874;SDS011;40468;42.128;24.750;2022-10-19T02:53:27;9.43;;;4.25;;
32874;SDS011;40468;42.128;24.750;2022-10-19T02:54:59;9.52;;;4.28;;
32874;SDS011;40468;42.128;24.750;2022-10-19T02:56:31;9.18;;;4.13;;
32874;SDS011;40468;42.128;24.750;2022-10-19T02:58:04;7.55;;;4.43;;
32874;SDS011;40468;42.128;24.750;2022-10-19T02:59:34;10.55;;;4.38;;
32874;SDS011;40468;42.128;24.750;2022-10-19T03:01:06;11.88;;;4.57;;
32874;SDS011;40468;42.128;24.750;2022-10-19T03:02:38;9.02;;;4.25;;
32874;SDS011;40468;42.128;24.750;2022-10-19T03:04:10;7.53;;;4.30;;
32874;SDS011;40468;42.128;24.750;2022-10-19T03:05:43;11.93;;;4.38;;
32874;SDS011;40468;42.128;24.750;2022-10-19T03:07:16;11.55;;;4.72;;
32874;SDS011;40468;42.128;24.750;2022-10-19T03:08:50;10.27;;;3.92;;
32874;SDS011;40468;42.128;24.750;2022-10-19T03:10:22;12.32;;;4.82;;
32874;SDS011;40468;42.128;24.750;2022-10-19T03:11:53;8.60;;;3.85;;
32874;SDS011;40468;42.128;24.750;2022-10-19T03:13:25;8.98;;;4.30;;
32874;SDS011;40468;42.128;24.750;2022-10-19T03:14:57;7.85;;;4.50;;
32874;SDS011;40468;42.128;24.750;2022-10-19T03:16:29;8.90;;;4.35;;
32874;SDS011;40468;42.128;24.750;2022-10-19T03:18:01;11.05;;;5.07;;
32874;SDS011;40468;42.128;24.750;2022-10-19T03:19:33;8.07;;;4.32;;
32874;SDS011;40468;42.128;24.750;2022-10-19T03:21:07;9.52;;;5.00;;
32874;SDS011;40468;42.128;24.750;2022-10-19T03:22:41;7.53;;;3.92;;
32874;SDS011;40468;42.128;24.750;2022-10-19T03:24:13;8.77;;;4.15;;
32874;SDS011;40468;42.128;24.750;2022-10-19T03:25:44;10.88;;;4.38;;
32874;SDS011;40468;42.128;24.750;2022-10-19T03:27:16;8.50;;;4.63;;
32874;SDS011;40468;42.128;24.750;2022-10-19T03:28:47;10.70;;;4.78;;
32874;SDS011;40468;42.128;24.750;2022-10-19T03:30:18;8.93;;;4.40;;
32874;SDS011;40468;42.128;24.750;2022-10-19T03:31:50;9.55;;;4.38;;
32874;SDS011;40468;42.128;24.750;2022-10-19T03:33:22;15.70;;;4.15;;
32874;SDS011;40468;42.128;24.750;2022-10-19T03:34:54;8.25;;;4.22;;
32874;SDS011;40468;42.128;24.750;2022-10-19T03:36:28;9.95;;;4.22;;
32874;SDS011;40468;42.128;24.750;2022-10-19T03:38:02;9.88;;;4.72;;
32874;SDS011;40468;42.128;24.750;2022-10-19T03:39:33;9.40;;;4.43;;
32874;SDS011;40468;42.128;24.750;2022-10-19T03:41:05;11.38;;;4.80;;
32874;SDS011;40468;42.128;24.750;2022-10-19T03:42:37;9.75;;;4.32;;
32874;SDS011;40468;42.128;24.750;2022-10-19T03:44:09;9.80;;;5.03;;
32874;SDS011;40468;42.128;24.750;2022-10-19T03:45:44;9.10;;;4.60;;
32874;SDS011;40468;42.128;24.750;2022-10-19T03:47:16;8.35;;;4.70;;
32874;SDS011;40468;42.128;24.750;2022-10-19T03:48:48;12.77;;;4.82;;
32874;SDS011;40468;42.128;24.750;2022-10-19T03:50:20;11.88;;;5.40;;
32874;SDS011;40468;42.128;24.750;2022-10-19T03:51:53;10.13;;;5.65;;
32874;SDS011;40468;42.128;24.750;2022-10-19T03:53:25;13.00;;;4.90;;
32874;SDS011;40468;42.128;24.750;2022-10-19T03:54:56;12.18;;;5.15;;
32874;SDS011;40468;42.128;24.750;2022-10-19T03:56:29;10.80;;;5.35;;
32874;SDS011;40468;42.128;24.750;2022-10-19T03:58:01;16.83;;;5.63;;
32874;SDS011;40468;42.128;24.750;2022-10-19T03:59:33;10.75;;;4.72;;
32874;SDS011;40468;42.128;24.750;2022-10-19T04:01:05;10.82;;;5.22;;
32874;SDS011;40468;42.128;24.750;2022-10-19T04:02:37;11.85;;;5.40;;
32874;SDS011;40468;42.128;24.750;2022-10-19T04:04:10;11.02;;;4.70;;
32874;SDS011;40468;42.128;24.750;2022-10-19T04:05:43;11.32;;;5.47;;
32874;SDS011;40468;42.128;24.750;2022-10-19T04:07:17;10.85;;;5.13;;
32874;SDS011;40468;42.128;24.750;2022-10-19T04:08:48;12.13;;;4.22;;
32874;SDS011;40468;42.128;24.750;2022-10-19T04:10:19;10.38;;;4.72;;
32874;SDS011;40468;42.128;24.750;2022-10-19T04:11:51;10.93;;;5.30;;
32874;SDS011;40468;42.128;24.750;2022-10-19T04:13:23;8.98;;;4.30;;
32874;SDS011;40468;42.128;24.750;2022-10-19T04:14:54;11.70;;;5.45;;
32874;SDS011;40468;42.128;24.750;2022-10-19T04:16:27;9.70;;;4.95;;
32874;SDS011;40468;42.128;24.750;2022-10-19T04:18:00;76.07;;;39.38;;
32874;SDS011;40468;42.128;24.750;2022-10-19T04:19:32;67.68;;;36.47;;
32874;SDS011;40468;42.128;24.750;2022-10-19T04:21:04;69.95;;;35.47;;
32874;SDS011;40468;42.128;24.750;2022-10-19T04:22:38;20.95;;;7.93;;
32874;SDS011;40468;42.128;24.750;2022-10-19T04:24:10;11.48;;;6.15;;
32874;SDS011;40468;42.128;24.750;2022-10-19T04:25:43;12.20;;;5.57;;
32874;SDS011;40468;42.128;24.750;2022-10-19T04:27:14;10.10;;;5.57;;
32874;SDS011;40468;42.128;24.750;2022-10-19T04:28:46;15.48;;;5.97;;
32874;SDS011;40468;42.128;24.750;2022-10-19T04:30:17;17.52;;;5.72;;
32874;SDS011;40468;42.128;24.750;2022-10-19T04:31:49;20.08;;;5.85;;
32874;SDS011;40468;42.128;24.750;2022-10-19T04:33:22;11.98;;;5.25;;
32874;SDS011;40468;42.128;24.750;2022-10-19T04:34:53;15.13;;;5.60;;
32874;SDS011;40468;42.128;24.750;2022-10-19T04:36:25;14.02;;;6.13;;
32874;SDS011;40468;42.128;24.750;2022-10-19T04:37:58;13.10;;;5.78;;
32874;SDS011;40468;42.128;24.750;2022-10-19T04:39:30;16.42;;;6.22;;
32874;SDS011;40468;42.128;24.750;2022-10-19T04:41:03;17.08;;;5.70;;
32874;SDS011;40468;42.128;24.750;2022-10-19T04:42:35;12.52;;;6.25;;
32874;SDS011;40468;42.128;24.750;2022-10-19T04:44:07;20.48;;;6.72;;
32874;SDS011;40468;42.128;24.750;2022-10-19T04:45:40;13.57;;;6.17;;
32874;SDS011;40468;42.128;24.750;2022-10-19T04:47:12;16.63;;;5.53;;
32874;SDS011;40468;42.128;24.750;2022-10-19T04:48:44;15.50;;;5.50;;
32874;SDS011;40468;42.128;24.750;2022-10-19T04:51:49;16.85;;;5.63;;
32874;SDS011;40468;42.128;24.750;2022-10-19T04:53:22;13.07;;;5.80;;
32874;SDS011;40468;42.128;24.750;2022-10-19T04:54:54;86.82;;;42.13;;
32874;SDS011;40468;42.128;24.750;2022-10-19T04:56:26;75.93;;;36.63;;
32874;SDS011;40468;42.128;24.750;2022-10-19T04:57:59;103.07;;;44.45;;
32874;SDS011;40468;42.128;24.750;2022-10-19T04:59:31;92.05;;;46.10;;
32874;SDS011;40468;42.128;24.750;2022-10-19T05:01:07;18.55;;;8.85;;
32874;SDS011;40468;42.128;24.750;2022-10-19T05:02:41;18.83;;;6.75;;
32874;SDS011;40468;42.128;24.750;2022-10-19T05:04:13;14.88;;;7.45;;
32874;SDS011;40468;42.128;24.750;2022-10-19T05:05:45;19.67;;;6.45;;
32874;SDS011;40468;42.128;24.750;2022-10-19T05:07:17;14.60;;;6.60;;
32874;SDS011;40468;42.128;24.750;2022-10-19T05:08:50;24.23;;;6.53;;
32874;SDS011;40468;42.128;24.750;2022-10-19T05:10:22;14.82;;;6.30;;
32874;SDS011;40468;42.128;24.750;2022-10-19T05:11:54;19.90;;;6.95;;
32874;SDS011;40468;42.128;24.750;2022-10-19T05:13:26;21.42;;;6.75;;
32874;SDS011;40468;42.128;24.750;2022-10-19T05:14:57;13.43;;;6.97;;
32874;SDS011;40468;42.128;24.750;2022-10-19T05:16:29;16.63;;;6.55;;
32874;SDS011;40468;42.128;24.750;2022-10-19T05:18:01;31.50;;;7.25;;
32874;SDS011;40468;42.128;24.750;2022-10-19T05:19:33;22.88;;;7.03;;
32874;SDS011;40468;42.128;24.750;2022-10-19T05:21:06;25.52;;;7.03;;
32874;SDS011;40468;42.128;24.750;2022-10-19T05:22:39;16.67;;;6.68;;
32874;SDS011;40468;42.128;24.750;2022-10-19T05:24:12;52.90;;;25.42;;
32874;SDS011;40468;42.128;24.750;2022-10-19T05:25:44;42.83;;;19.42;;
32874;SDS011;40468;42.128;24.750;2022-10-19T05:27:16;55.35;;;24.33;;
32874;SDS011;40468;42.128;24.750;2022-10-19T05:28:48;30.80;;;12.82;;
32874;SDS011;40468;42.128;24.750;2022-10-19T05:30:25;11.32;;;6.07;;
32874;SDS011;40468;42.128;24.750;2022-10-19T05:31:57;27.73;;;14.55;;
32874;SDS011;40468;42.128;24.750;2022-10-19T05:33:29;46.70;;;21.08;;
32874;SDS011;40468;42.128;24.750;2022-10-19T05:35:04;30.52;;;14.52;;
32874;SDS011;40468;42.128;24.750;2022-10-19T05:36:37;22.92;;;9.88;;
32874;SDS011;40468;42.128;24.750;2022-10-19T05:38:10;23.40;;;7.55;;
32874;SDS011;40468;42.128;24.750;2022-10-19T05:39:43;20.27;;;6.90;;
32874;SDS011;40468;42.128;24.750;2022-10-19T05:41:15;13.63;;;6.88;;
32874;SDS011;40468;42.128;24.750;2022-10-19T05:42:47;17.88;;;7.10;;
32874;SDS011;40468;42.128;24.750;2022-10-19T05:44:20;15.07;;;6.55;;
32874;SDS011;40468;42.128;24.750;2022-10-19T05:45:53;12.75;;;6.53;;
32874;SDS011;40468;42.128;24.750;2022-10-19T05:47:24;12.80;;;6.38;;
32874;SDS011;40468;42.128;24.750;2022-10-19T05:48:56;15.13;;;6.13;;
32874;SDS011;40468;42.128;24.750;2022-10-19T05:50:29;17.15;;;6.45;;
32874;SDS011;40468;42.128;24.750;2022-10-19T05:52:01;12.35;;;5.68;;
32874;SDS011;40468;42.128;24.750;2022-10-19T05:53:33;17.65;;;6.63;;
32874;SDS011;40468;42.128;24.750;2022-10-19T05:55:08;17.13;;;5.57;;
32874;SDS011;40468;42.128;24.750;2022-10-19T05:56:40;14.07;;;5.35;;
32874;SDS011;40468;42.128;24.750;2022-10-19T05:58:12;10.73;;;5.50;;
32874;SDS011;40468;42.128;24.750;2022-10-19T05:59:43;12.40;;;6.20;;
32874;SDS011;40468;42.128;24.750;2022-10-19T06:01:15;15.60;;;5.82;;
32874;SDS011;40468;42.128;24.750;2022-10-19T06:02:48;13.85;;;5.53;;
32874;SDS011;40468;42.128;24.750;2022-10-19T06:04:20;24.75;;;6.72;;
32874;SDS011;40468;42.128;24.750;2022-10-19T06:05:52;15.25;;;4.95;;
32874;SDS011;40468;42.128;24.750;2022-10-19T06:07:24;19.35;;;5.30;;
32874;SDS011;40468;42.128;24.750;2022-10-19T06:08:56;13.25;;;5.03;;
32874;SDS011;40468;42.128;24.750;2022-10-19T06:10:30;15.52;;;5.10;;
32874;SDS011;40468;42.128;24.750;2022-10-19T06:12:02;9.48;;;4.93;;
32874;SDS011;40468;42.128;24.750;2022-10-19T06:13:34;9.02;;;5.28;;
32874;SDS011;40468;42.128;24.750;2022-10-19T06:15:06;9.80;;;4.90;;
32874;SDS011;40468;42.128;24.750;2022-10-19T06:16:39;7.85;;;4.47;;
32874;SDS011;40468;42.128;24.750;2022-10-19T06:18:11;10.60;;;4.67;;
32874;SDS011;40468;42.128;24.750;2022-10-19T06:19:44;10.88;;;5.65;;
32874;SDS011;40468;42.128;24.750;2022-10-19T06:21:16;14.18;;;5.35;;
32874;SDS011;40468;42.128;24.750;2022-10-19T06:22:49;14.77;;;6.05;;
32874;SDS011;40468;42.128;24.750;2022-10-19T06:24:21;12.02;;;6.50;;
32874;SDS011;40468;42.128;24.750;2022-10-19T06:25:54;18.48;;;5.53;;
32874;SDS011;40468;42.128;24.750;2022-10-19T06:27:26;12.38;;;5.63;;
32874;SDS011;40468;42.128;24.750;2022-10-19T06:28:59;7.75;;;4.95;;
32874;SDS011;40468;42.128;24.750;2022-10-19T06:30:32;14.85;;;5.65;;
32874;SDS011;40468;42.128;24.750;2022-10-19T06:32:04;15.18;;;6.05;;
32874;SDS011;40468;42.128;24.750;2022-10-19T06:33:36;6.32;;;4.38;;
32874;SDS011;40468;42.128;24.750;2022-10-19T06:35:09;10.93;;;4.85;;
32874;SDS011;40468;42.128;24.750;2022-10-19T06:36:41;13.77;;;4.60;;
32874;SDS011;40468;42.128;24.750;2022-10-19T06:38:13;7.65;;;4.15;;
32874;SDS011;40468;42.128;24.750;2022-10-19T06:39:44;12.90;;;5.05;;
32874;SDS011;40468;42.128;24.750;2022-10-19T06:41:17;9.40;;;4.70;;
32874;SDS011;40468;42.128;24.750;2022-10-19T06:42:49;15.93;;;6.22;;
32874;SDS011;40468;42.128;24.750;2022-10-19T06:44:21;8.32;;;4.85;;
32874;SDS011;40468;42.128;24.750;2022-10-19T06:45:53;14.43;;;4.68;;
32874;SDS011;40468;42.128;24.750;2022-10-19T06:47:25;9.15;;;4.72;;
32874;SDS011;40468;42.128;24.750;2022-10-19T06:49:01;29.77;;;4.63;;
32874;SDS011;40468;42.128;24.750;2022-10-19T06:50:33;9.20;;;4.65;;
32874;SDS011;40468;42.128;24.750;2022-10-19T06:52:05;7.78;;;4.68;;
32874;SDS011;40468;42.128;24.750;2022-10-19T06:53:37;14.57;;;4.28;;
32874;SDS011;40468;42.128;24.750;2022-10-19T06:55:09;10.18;;;4.80;;
32874;SDS011;40468;42.128;24.750;2022-10-19T06:56:42;10.43;;;5.20;;
32874;SDS011;40468;42.128;24.750;2022-10-19T06:59:45;10.15;;;4.63;;
32874;SDS011;40468;42.128;24.750;2022-10-19T07:01:17;10.45;;;4.18;;
32874;SDS011;40468;42.128;24.750;2022-10-19T07:02:49;13.48;;;4.43;;
32874;SDS011;40468;42.128;24.750;2022-10-19T07:04:21;10.60;;;5.53;;
32874;SDS011;40468;42.128;24.750;2022-10-19T07:05:53;14.85;;;5.22;;
32874;SDS011;40468;42.128;24.750;2022-10-19T07:07:24;10.05;;;4.55;;
32874;SDS011;40468;42.128;24.750;2022-10-19T07:08:56;11.23;;;5.13;;
32874;SDS011;40468;42.128;24.750;2022-10-19T07:10:27;15.52;;;5.45;;
32874;SDS011;40468;42.128;24.750;2022-10-19T07:12:00;12.18;;;5.10;;
32874;SDS011;40468;42.128;24.750;2022-10-19T07:13:31;10.48;;;5.10;;
32874;SDS011;40468;42.128;24.750;2022-10-19T07:15:04;15.68;;;5.35;;
32874;SDS011;40468;42.128;24.750;2022-10-19T07:16:37;17.60;;;4.82;;
32874;SDS011;40468;42.128;24.750;2022-10-19T07:18:08;9.13;;;4.72;;
32874;SDS011;40468;42.128;24.750;2022-10-19T07:19:40;10.50;;;5.55;;
32874;SDS011;40468;42.128;24.750;2022-10-19T07:21:13;15.63;;;5.95;;
32874;SDS011;40468;42.128;24.750;2022-10-19T07:22:46;15.00;;;6.70;;
32874;SDS011;40468;42.128;24.750;2022-10-19T07:24:18;16.98;;;7.03;;
32874;SDS011;40468;42.128;24.750;2022-10-19T07:25:50;94.25;;;58.67;;
32874;SDS011;40468;42.128;24.750;2022-10-19T07:27:24;188.32;;;110.63;;
32874;SDS011;40468;42.128;24.750;2022-10-19T07:28:57;71.85;;;46.55;;
32874;SDS011;40468;42.128;24.750;2022-10-19T07:30:29;60.13;;;36.78;;
32874;SDS011;40468;42.128;24.750;2022-10-19T07:32:00;26.52;;;10.93;;
32874;SDS011;40468;42.128;24.750;2022-10-19T07:33:32;18.48;;;10.82;;
32874;SDS011;40468;42.128;24.750;2022-10-19T07:35:04;12.85;;;5.82;;
32874;SDS011;40468;42.128;24.750;2022-10-19T07:36:37;17.65;;;5.70;;
32874;SDS011;40468;42.128;24.750;2022-10-19T07:38:09;12.35;;;4.72;;
32874;SDS011;40468;42.128;24.750;2022-10-19T07:39:41;9.20;;;5.00;;
32874;SDS011;40468;42.128;24.750;2022-10-19T07:41:13;10.25;;;5.60;;
32874;SDS011;40468;42.128;24.750;2022-10-19T07:42:48;15.93;;;5.10;;
32874;SDS011;40468;42.128;24.750;2022-10-19T07:44:20;11.10;;;5.25;;
32874;SDS011;40468;42.128;24.750;2022-10-19T07:45:55;12.50;;;5.43;;
32874;SDS011;40468;42.128;24.750;2022-10-19T07:47:27;17.15;;;5.35;;
32874;SDS011;40468;42.128;24.750;2022-10-19T07:48:59;13.43;;;5.28;;
32874;SDS011;40468;42.128;24.750;2022-10-19T07:50:31;15.48;;;5.68;;
32874;SDS011;40468;42.128;24.750;2022-10-19T07:52:03;14.82;;;5.20;;
32874;SDS011;40468;42.128;24.750;2022-10-19T07:53:35;13.70;;;5.68;;
32874;SDS011;40468;42.128;24.750;2022-10-19T07:55:08;14.05;;;5.10;;
32874;SDS011;40468;42.128;24.750;2022-10-19T07:56:40;10.30;;;5.53;;
32874;SDS011;40468;42.128;24.750;2022-10-19T07:58:13;18.45;;;4.97;;
32874;SDS011;40468;42.128;24.750;2022-10-19T08:01:17;7.60;;;3.88;;
32874;SDS011;40468;42.128;24.750;2022-10-19T08:02:51;11.80;;;4.95;;
32874;SDS011;40468;42.128;24.750;2022-10-19T08:04:22;13.18;;;5.22;;
32874;SDS011;40468;42.128;24.750;2022-10-19T08:05:58;16.60;;;5.40;;
32874;SDS011;40468;42.128;24.750;2022-10-19T08:07:31;18.52;;;5.57;;
32874;SDS011;40468;42.128;24.750;2022-10-19T08:09:04;16.00;;;5.72;;
32874;SDS011;40468;42.128;24.750;2022-10-19T08:10:36;15.70;;;5.35;;
32874;SDS011;40468;42.128;24.750;2022-10-19T08:12:08;15.68;;;5.55;;
32874;SDS011;40468;42.128;24.750;2022-10-19T08:13:41;13.30;;;5.70;;
32874;SDS011;40468;42.128;24.750;2022-10-19T08:15:13;20.27;;;5.30;;
32874;SDS011;40468;42.128;24.750;2022-10-19T08:16:45;13.75;;;5.60;;
32874;SDS011;40468;42.128;24.750;2022-10-19T08:18:17;18.42;;;5.60;;
32874;SDS011;40468;42.128;24.750;2022-10-19T08:19:51;15.70;;;5.03;;
32874;SDS011;40468;42.128;24.750;2022-10-19T08:21:23;15.68;;;5.63;;
32874;SDS011;40468;42.128;24.750;2022-10-19T08:22:55;14.23;;;5.85;;
32874;SDS011;40468;42.128;24.750;2022-10-19T08:24:27;22.85;;;5.40;;
32874;SDS011;40468;42.128;24.750;2022-10-19T08:25:59;10.82;;;5.07;;
32874;SDS011;40468;42.128;24.750;2022-10-19T08:27:30;13.98;;;4.82;;
32874;SDS011;40468;42.128;24.750;2022-10-19T08:29:04;14.13;;;4.68;;
32874;SDS011;40468;42.128;24.750;2022-10-19T08:30:38;12.20;;;4.95;;
32874;SDS011;40468;42.128;24.750;2022-10-19T08:32:10;13.52;;;4.28;;
32874;SDS011;40468;42.128;24.750;2022-10-19T08:33:42;12.15;;;4.68;;
32874;SDS011;40468;42.128;24.750;2022-10-19T08:35:14;13.98;;;4.57;;
32874;SDS011;40468;42.128;24.750;2022-10-19T08:36:46;12.02;;;4.35;;
32874;SDS011;40468;42.128;24.750;2022-10-19T08:38:18;14.43;;;4.85;;
32874;SDS011;40468;42.128;24.750;2022-10-19T08:39:50;15.80;;;4.97;;
32874;SDS011;40468;42.128;24.750;2022-10-19T08:41:24;13.90;;;4.47;;
32874;SDS011;40468;42.128;24.750;2022-10-19T08:43:01;11.85;;;5.25;;
32874;SDS011;40468;42.128;24.750;2022-10-19T08:44:59;17.98;;;4.93;;
32874;SDS011;40468;42.128;24.750;2022-10-19T08:46:53;12.43;;;4.43;;
32874;SDS011;40468;42.128;24.750;2022-10-19T08:48:34;11.45;;;4.22;;
32874;SDS011;40468;42.128;24.750;2022-10-19T08:50:13;19.08;;;5.60;;
32874;SDS011;40468;42.128;24.750;2022-10-19T08:51:50;19.25;;;4.85;;
32874;SDS011;40468;42.128;24.750;2022-10-19T08:53:30;22.80;;;5.38;;
32874;SDS011;40468;42.128;24.750;2022-10-19T08:55:10;14.60;;;4.70;;
32874;SDS011;40468;42.128;24.750;2022-10-19T08:56:46;24.52;;;5.97;;
32874;SDS011;40468;42.128;24.750;2022-10-19T08:58:25;25.08;;;6.00;;
32874;SDS011;40468;42.128;24.750;2022-10-19T09:01:42;11.07;;;4.82;;
32874;SDS011;40468;42.128;24.750;2022-10-19T09:03:22;15.45;;;5.20;;
32874;SDS011;40468;42.128;24.750;2022-10-19T09:04:58;12.13;;;5.60;;
32874;SDS011;40468;42.128;24.750;2022-10-19T09:06:36;14.43;;;4.43;;
32874;SDS011;40468;42.128;24.750;2022-10-19T09:08:18;17.75;;;6.68;;
32874;SDS011;40468;42.128;24.750;2022-10-19T09:09:52;16.77;;;4.65;;
32874;SDS011;40468;42.128;24.750;2022-10-19T09:11:27;10.52;;;4.25;;
32874;SDS011;40468;42.128;24.750;2022-10-19T09:13:04;10.48;;;3.92;;
32874;SDS011;40468;42.128;24.750;2022-10-19T09:14:48;14.50;;;4.23;;
32874;SDS011;40468;42.128;24.750;2022-10-19T09:16:25;12.05;;;4.32;;